Latest Weather Observations for Leinster

IDW60801

Issued at 6:02 pm WST Tuesday 28 April 2015 (issued every 30 minutes, with the page automatically refreshed every 10 minutes)

About weather observations | Map of weather stations | Latest weather observations for WA | Other Formats
Station Details ID: 012314 Name: LEINSTER AERO Lat: -27.84 Lon: 120.70 Height: 497.0 m
Data from the previous 72 hours. | See also: Recent months at Leinster
Date/Time
WST
Temp
°C
App
Temp
°C
Dew
Point
Rel
Hum
%
Delta-T
°C
Wind Press
QNH
hPa
Press
MSL
hPa
Rain
since 9 am
mm
Dir
 
Spd
km/h
Gust
km/h
Spd
kts
Gust
kts
28/06:00pm 19.8 17.0 3.1 33 8.0 ESE 7 9 4 5 - - -
28/05:30pm 21.0 17.4 3.2 31 8.7 ESE 11 17 6 9 - - -
28/05:00pm 22.0 18.1 3.2 29 9.2 E 13 20 7 11 - - -
28/04:30pm 22.2 17.9 3.3 29 9.3 E 15 20 8 11 - - -
28/04:00pm 23.0 19.1 3.5 28 9.7 E 13 24 7 13 - - -
28/03:30pm 23.2 18.9 3.2 27 9.9 E 15 24 8 13 - - -
28/03:00pm 22.5 18.1 2.6 27 9.7 NE 15 24 8 13 - - -
28/02:30pm 23.3 19.5 3.8 28 9.8 E 13 22 7 12 - - -
28/02:00pm 22.4 18.5 3.5 29 9.3 E 13 19 7 10 - - -
28/01:30pm 22.8 18.3 4.3 30 9.3 E 17 26 9 14 - - -
28/01:00pm 22.2 18.1 4.3 31 9.0 NE 15 22 8 12 - - -
28/12:30pm 21.8 17.2 3.9 31 8.9 ENE 17 26 9 14 - - -
28/12:00pm 21.4 16.9 4.0 32 8.6 NE 17 24 9 13 - - -
28/11:30am 20.8 15.7 4.0 33 8.3 NE 20 30 11 16 - - -
28/11:00am 19.5 14.7 4.4 37 7.4 ENE 19 30 10 16 - - -
28/10:30am 18.7 13.3 4.5 39 7.0 NE 22 30 12 16 - - -
28/10:00am 18.1 13.1 4.7 41 6.6 ENE 20 30 11 16 - - -
28/09:30am 17.2 12.3 4.9 44 6.0 ENE 20 28 11 15 - - -
28/09:00am 15.9 10.5 4.3 46 5.6 ENE 22 30 12 16 - - -
28/08:30am 14.9 9.5 4.6 50 4.9 ENE 22 35 12 19 - - -
28/08:00am 13.0 8.3 5.2 59 3.7 E 19 26 10 14 - - -
28/07:30am 11.3 7.7 5.0 65 3.0 E 13 20 7 11 - - -
28/07:00am 9.5 6.6 4.9 73 2.1 ESE 9 15 5 8 - - -
28/06:30am 8.6 5.7 4.6 76 1.8 E 9 11 5 6 - - -
28/06:00am 8.7 5.8 4.7 76 1.8 ESE 9 11 5 6 - - -
28/05:30am 8.8 5.9 4.4 74 2.0 E 9 11 5 6 - - -
28/05:00am 9.0 6.1 4.4 73 2.1 E 9 11 5 6 - - -
28/04:30am 9.3 6.3 4.3 71 2.3 E 9 11 5 6 - - -
28/04:00am 9.5 7.0 4.5 71 2.3 E 7 9 4 5 - - -
28/03:30am 9.8 7.2 4.2 68 2.6 E 7 11 4 6 - - -
28/03:00am 10.3 7.3 4.2 66 2.8 E 9 13 5 7 - - -
28/02:30am 10.9 7.9 4.1 63 3.1 E 9 13 5 7 - - -
28/02:00am 11.0 8.0 4.2 63 3.1 ESE 9 13 5 7 - - -
28/01:30am 11.1 8.1 4.3 63 3.1 ESE 9 13 5 7 - - -
28/01:00am 10.9 8.3 4.1 63 3.1 ESE 7 9 4 5 - - -
28/12:30am 11.4 8.8 4.2 61 3.3 E 7 9 4 5 - - -
28/12:00am 12.1 9.1 4.3 59 3.6 ENE 9 13 5 7 - - -
 
Date/Time
WST
Temp
°C
App
Temp
°C
Dew
Point
Rel
Hum
%
Delta-T
°C
Wind Press
QNH
hPa
Press
MSL
hPa
Rain
since 9 am
mm
Dir
 
Spd
km/h
Gust
km/h
Spd
kts
Gust
kts
27/11:30pm 12.5 9.5 4.2 57 3.9 E 9 11 5 6 - - -
27/11:00pm 12.8 9.8 4.3 56 4.0 E 9 11 5 6 - - -
27/10:30pm 13.5 10.9 4.4 54 4.3 E 7 11 4 6 - - -
27/10:00pm 14.1 11.2 4.4 52 4.6 E 9 15 5 8 - - -
27/09:30pm 14.9 11.6 4.3 49 5.0 E 11 17 6 9 - - -
27/09:00pm 15.3 12.3 4.1 47 5.3 E 9 15 5 8 - - -
27/08:30pm 15.6 12.6 4.0 46 5.5 E 9 13 5 7 - - -
27/08:00pm 15.8 12.8 3.9 45 5.7 ESE 9 11 5 6 - - -
27/07:30pm 16.6 13.5 3.6 42 6.2 ESE 9 15 5 8 - - -
27/07:00pm 17.3 14.3 3.9 41 6.4 ESE 9 13 5 7 - - -
27/06:30pm 17.9 14.8 3.8 39 6.8 ESE 9 13 5 7 - - -
27/06:00pm 18.9 15.5 3.9 37 7.3 ESE 11 17 6 9 - - -
27/05:30pm 19.8 16.3 3.5 34 7.9 ESE 11 20 6 11 - - -
27/05:00pm 20.4 16.8 3.2 32 8.3 ESE 11 17 6 9 - - -
27/04:30pm 21.1 15.9 3.3 31 8.7 SE 20 28 11 15 - - -
27/04:00pm 21.3 17.0 3.0 30 8.9 ESE 15 22 8 12 - - -
27/03:30pm 21.7 17.1 3.9 31 8.8 E 17 24 9 13 - - -
27/03:00pm 21.6 17.8 3.8 31 8.8 ESE 13 24 7 13 - - -
27/02:30pm 21.6 17.5 4.2 32 8.7 ESE 15 24 8 13 - - -
27/02:00pm 21.3 17.1 4.0 32 8.6 ESE 15 26 8 14 - - -
27/01:30pm 21.1 17.0 4.2 33 8.4 ENE 15 20 8 11 - - -
27/01:00pm 21.0 16.6 5.0 35 8.1 E 17 28 9 15 - - -
27/12:30pm 20.8 16.5 5.2 36 7.9 E 17 24 9 13 - - -
27/12:00pm 20.4 16.1 5.2 37 7.7 ENE 17 26 9 14 - - -
27/11:30am 19.5 14.7 4.8 38 7.3 ENE 19 28 10 15 - - -
27/11:00am 18.5 13.7 5.4 42 6.5 E 20 28 11 15 - - -
27/10:30am 18.2 13.2 4.7 41 6.6 E 20 30 11 16 - - -
27/10:00am 17.4 11.7 5.0 44 6.1 ENE 24 32 13 17 - - -
27/09:30am 16.7 10.2 4.7 45 5.8 ENE 28 35 15 19 - - -
27/09:00am 16.1 10.4 4.8 47 5.5 ENE 24 33 13 18 - - -
27/08:30am 14.6 8.5 4.9 52 4.7 ENE 26 35 14 19 - - -
27/08:00am 13.4 7.7 4.8 56 4.1 E 24 33 13 18 - - -
27/07:30am 11.5 7.5 4.9 64 3.1 E 15 22 8 12 - - -
27/07:00am 9.6 6.4 5.0 73 2.1 E 11 17 6 9 - - -
27/06:30am 8.9 5.7 4.9 76 1.8 E 11 15 6 8 - - -
27/06:00am 8.9 6.0 4.9 76 1.8 E 9 13 5 7 - - -
27/05:30am 9.1 6.2 4.9 75 1.9 E 9 13 5 7 - - -
27/05:00am 9.4 6.6 5.0 74 2.0 ESE 9 13 5 7 - - -
27/04:30am 9.7 6.9 5.1 73 2.1 ESE 9 13 5 7 - - -
27/04:00am 9.9 7.5 5.1 72 2.2 ESE 7 11 4 6 - - -
27/03:30am 10.2 7.7 5.0 70 2.4 ESE 7 9 4 5 - - -
27/03:00am 10.7 7.9 5.0 68 2.7 ESE 9 11 5 6 - - -
27/02:30am 11.4 9.0 5.1 65 3.0 E 7 9 4 5 - - -
27/02:00am 12.3 9.5 5.0 61 3.5 E 9 17 5 9 - - -
27/01:30am 12.9 9.3 5.1 59 3.7 E 13 20 7 11 - - -
27/01:00am 13.3 9.7 5.2 58 3.9 E 13 20 7 11 - - -
27/12:30am 13.5 9.9 5.2 57 4.0 E 13 19 7 10 - - -
27/12:00am 13.4 9.8 5.1 57 4.0 E 13 17 7 9 - - -
 
Date/Time
WST
Temp
°C
App
Temp
°C
Dew
Point
Rel
Hum
%
Delta-T
°C
Wind Press
QNH
hPa
Press
MSL
hPa
Rain
since 9 am
mm
Dir
 
Spd
km/h
Gust
km/h
Spd
kts
Gust
kts
26/11:30pm 13.2 9.5 4.6 56 4.1 ESE 13 17 7 9 - - -
26/11:00pm 13.1 9.8 4.3 55 4.1 ESE 11 17 6 9 - - -
26/10:30pm 13.2 10.2 4.1 54 4.3 ESE 9 13 5 7 - - -
26/10:00pm 13.4 10.8 4.0 53 4.4 ESE 7 11 4 6 - - -
26/09:30pm 14.0 10.9 3.8 50 4.8 ESE 9 11 5 6 - - -
26/09:00pm 14.8 11.7 3.6 47 5.2 ESE 9 11 5 6 - - -
26/08:30pm 15.2 12.1 3.7 46 5.4 ESE 9 15 5 8 - - -
26/08:00pm 15.4 12.2 3.2 44 5.7 ESE 9 13 5 7 - - -
26/07:30pm 15.9 12.8 3.4 43 5.9 ESE 9 13 5 7 - - -
26/07:00pm 16.8 13.6 3.1 40 6.5 ESE 9 13 5 7 - - -
26/06:30pm 17.7 14.5 2.8 37 7.0 E 9 13 5 7 - - -
26/06:00pm 18.5 14.9 3.2 36 7.3 E 11 15 6 8 - - -
26/05:30pm 19.5 15.9 2.8 33 8.0 E 11 17 6 9 - - -
26/05:00pm 20.6 16.3 3.3 32 8.4 ENE 15 26 8 14 - - -
26/04:30pm 20.9 16.6 3.2 31 8.6 ENE 15 28 8 15 - - -
26/04:00pm 21.5 16.8 3.2 30 8.9 ENE 17 26 9 14 - - -
26/03:30pm 21.5 16.2 3.2 30 8.9 ENE 20 32 11 17 - - -
26/03:00pm 21.2 16.5 3.0 30 8.8 ENE 17 24 9 13 - - -
26/02:30pm 21.2 17.0 3.9 32 8.5 ENE 15 22 8 12 - - -
26/02:00pm 21.0 15.9 3.2 31 8.7 ENE 19 28 10 15 - - -
26/01:30pm 19.9 15.2 3.2 33 8.1 E 17 30 9 16 - - -
26/01:00pm 20.5 15.6 4.1 34 8.1 E 19 28 10 15 - - -
26/12:30pm 20.0 15.6 4.5 36 7.7 E 17 28 9 15 - - -
26/12:00pm 19.8 14.8 4.7 37 7.5 ENE 20 32 11 17 - - -
26/11:30am 19.3 14.4 4.3 37 7.4 ENE 19 28 10 15 - - -
26/11:00am 18.8 14.1 5.3 41 6.7 ENE 19 30 10 16 - - -
26/10:30am 17.6 12.6 4.5 42 6.4 ENE 20 33 11 18 - - -
26/10:00am 17.4 12.2 5.4 45 5.9 ENE 22 33 12 18 - - -
26/09:30am 16.4 11.2 5.4 48 5.4 ENE 22 33 12 18 - - -
26/09:00am 15.5 9.8 5.1 50 5.1 ENE 24 39 13 21 - - -
26/08:30am 14.5 9.9 5.6 55 4.3 E 19 26 10 14 - - -
26/08:00am 12.5 8.6 5.4 62 3.4 E 15 20 8 11 - - -
26/07:30am 10.2 7.5 5.4 72 2.3 E 9 15 5 8 - - -
26/07:00am 8.1 5.6 5.0 81 1.4 E 7 11 4 6 - - -
26/06:30am 7.2 4.7 4.7 84 1.1 ESE 7 9 4 5 - - -
26/06:00am 7.1 4.6 4.6 84 1.1 SE 7 9 4 5 - - -
26/05:30am 7.4 5.0 4.5 82 1.3 ESE 6 6 3 3 - - -
26/05:00am 7.9 5.4 4.8 81 1.4 ESE 7 9 4 5 - - -
26/04:30am 8.3 5.8 4.9 79 1.6 E 7 9 4 5 - - -
26/04:00am 8.7 6.2 4.9 77 1.7 E 7 9 4 5 - - -
26/03:30am 9.3 6.5 5.1 75 1.9 E 9 13 5 7 - - -
26/03:00am 9.5 6.3 4.9 73 2.1 E 11 13 6 7 - - -
26/02:30am 9.5 6.3 4.9 73 2.1 E 11 15 6 8 - - -
26/02:00am 9.6 6.7 4.8 72 2.2 E 9 11 5 6 - - -
26/01:30am 8.8 6.3 4.6 75 1.9 ENE 7 9 4 5 - - -
26/01:00am 9.1 6.6 4.5 73 2.1 ENE 7 7 4 4 - - -
26/12:30am 9.9 7.4 4.5 69 2.5 E 7 9 4 5 - - -
26/12:00am 10.1 7.6 4.5 68 2.6 E 7 9 4 5 - - -
 
Date/Time
WST
Temp
°C
App
Temp
°C
Dew
Point
Rel
Hum
%
Delta-T
°C
Wind Press
QNH
hPa
Press
MSL
hPa
Rain
since 9 am
mm
Dir
 
Spd
km/h
Gust
km/h
Spd
kts
Gust
kts
25/11:30pm 10.1 7.5 4.3 67 2.7 ESE 7 9 4 5 - - -
25/11:00pm 10.6 8.0 4.3 65 2.9 ENE 7 9 4 5 - - -
25/10:30pm 11.3 8.3 4.3 62 3.2 ENE 9 9 5 5 - - -
25/10:00pm 12.4 9.4 4.1 57 3.9 E 9 15 5 8 - - -
25/09:30pm 12.7 9.7 4.2 56 4.0 E 9 13 5 7 - - -
25/09:00pm 13.4 10.4 4.0 53 4.4 E 9 13 5 7 - - -
25/08:30pm 13.9 10.9 3.9 51 4.7 ESE 9 11 5 6 - - -
25/08:00pm 14.1 10.7 4.1 51 4.7 ESE 11 13 6 7 - - -
25/07:30pm 14.5 11.8 3.9 49 5.0 ESE 7 11 4 6 - - -
25/07:00pm 15.1 12.4 3.6 46 5.4 ESE 7 11 4 6 - - -
25/06:30pm 16.1 13.4 3.5 43 6.0 ESE 7 9 4 5 - - -

Other Formats:

Comma delimited format used in spreadsheet applications
http://www.bom.gov.au/fwo/IDW60801/IDW60801.95448.axf

JavaScript Object Notation format (JSON) in row-major order
http://www.bom.gov.au/fwo/IDW60801/IDW60801.95448.json